Thunder radar more information blitzortung!


Radar de pluja more information rain snow radar


Visita la nostra xarxa de llocs de meteo:

Template documentation
and downloads

And another site



No particular awareness of the weather is required.    There are no Weather-warnings

Pagina Historial Weather Underground text

Diari Resum Marc 25, 2016 Unitats:  Mètric    Imperial   Tant
« Previous Dia
SegĂźent Dia »
Diari Setmana Mensual Anual Personalitzada
  Maxima: Minima: Media:
Temperatura: -17.8 °C -14.4 °C -10.7 °C
Punt de rosada: -17.8 °C -16.9 °C -14.2 °C
Humitat: Humidity % 45 % 67 %
Wind Speed: 0 km/h 0 km/h 9.2 km/h
RĂ fegues de vent: 0 km/h - -
Vent:- - East
Pression baro: 0 hPa 34496.6 hPa -
Precipitacions: 0 mm    
Historical Graphs
 
 
Dades de taula per Marc 25, 2016
Temps Temperatura Punt de rosada Pression baro Vent Wind Speed RĂ fegues de vent Humitat Rainfall Rate (Hourly)
-17.8 °C -17.8 °C 0 hPa Calm     Humidity % 0 mm
00:00 -14.4 °C -16.9 °C 34496.6 hPa WSW 2.6 km/h 7.7 km/h 73 % 0 mm
00:02 -12.5 °C -15.9 °C 34496.6 hPa West 3.1 km/h 3.1 km/h 66 % 0 mm
00:07 -12.5 °C -15.7 °C 34496.6 hPa West 3.1 km/h 3.1 km/h 67 % 0 mm
00:10 -14.4 °C -16.8 °C 34533.8 hPa SW 2.6 km/h 5.1 km/h 74 % 0 mm
00:12 -12.6 °C -15.8 °C 34496.6 hPa Calm     67 % 0 mm
00:17 -12.6 °C -15.8 °C 34496.6 hPa Calm     67 % 0 mm
00:20 -14.4 °C -16.7 °C 34533.8 hPa Calm     75 % 0 mm
00:22 -12.7 °C -15.8 °C 34496.6 hPa WNW 3.1 km/h 3.1 km/h 68 % 0 mm
00:27 -12.7 °C -15.8 °C 34496.6 hPa WNW 2.3 km/h   68 % 0 mm
00:30 -14.4 °C -16.7 °C 34533.8 hPa Calm     75 % 0 mm
00:32 -12.7 °C -15.8 °C 34496.6 hPa West 6 km/h 6 km/h 68 % 0 mm
00:37 -12.8 °C -15.9 °C 34496.6 hPa West 3.1 km/h 3.1 km/h 68 % 0 mm
00:40 -14.4 °C -16.7 °C 34533.8 hPa Calm     75 % 0 mm
00:42 -12.8 °C -15.9 °C 34496.6 hPa SW 3.1 km/h 3.1 km/h 68 % 0 mm
00:50 -14.4 °C -16.7 °C 34533.8 hPa Calm   2.6 km/h 75 % 0 mm
01:00 -14.4 °C -16.7 °C 34533.8 hPa Calm   2.6 km/h 75 % 0 mm
01:10 -14.3 °C -16.6 °C 34533.8 hPa Calm   5.1 km/h 75 % 0 mm
01:20 -14.4 °C -16.8 °C 34533.8 hPa Calm     74 % 0 mm
01:30 -14.3 °C -16.7 °C 34533.8 hPa Calm   5.1 km/h 74 % 0 mm
01:40 -14.2 °C -16.7 °C 34533.8 hPa WNW 2.6 km/h 2.6 km/h 73 % 0 mm
01:50 -14.1 °C -16.6 °C 34533.8 hPa WSW 2.6 km/h 5.1 km/h 73 % 0 mm
02:00 -13.9 °C -16.5 °C 34533.8 hPa SW 2.6 km/h 5.1 km/h 72 % 0 mm
02:10 -13.3 °C -15.9 °C 34533.8 hPa SW 2.6 km/h 5.1 km/h 73 % 0 mm
02:20 -12.8 °C -15.7 °C 34533.8 hPa NNE 5.1 km/h 10.3 km/h 70 % 0 mm
02:30 -12.6 °C -15.7 °C 34533.8 hPa NNE 5.1 km/h 7.7 km/h 68 % 0 mm
02:40 -12.4 °C -15.6 °C 34533.8 hPa NE 2.6 km/h 5.1 km/h 68 % 0 mm
02:50 -12.4 °C -15.6 °C 34533.8 hPa North 2.6 km/h 7.7 km/h 67 % 0 mm
03:00 -12.3 °C -15.6 °C 34567.7 hPa WNW 2.6 km/h 5.1 km/h 67 % 0 mm
03:10 -12.2 °C -15.5 °C 34567.7 hPa WNW 2.6 km/h 5.1 km/h 66 % 0 mm
03:20 -11.8 °C -15.2 °C 34567.7 hPa NE 2.6 km/h 5.1 km/h 66 % 0 mm
03:30 -11.6 °C -15.1 °C 34601.5 hPa ENE 5.1 km/h 7.7 km/h 65 % 0 mm
03:40 -11.3 °C -14.8 °C 34567.7 hPa NE 2.6 km/h 7.7 km/h 65 % 0 mm
03:50 -11.1 °C -14.8 °C 34567.7 hPa NNE 5.1 km/h 10.3 km/h 63 % 0 mm
04:00 -11 °C -14.9 °C 34567.7 hPa NNE 5.1 km/h 10.3 km/h 62 % 0 mm
04:10 -11 °C -15.1 °C 34567.7 hPa NNE 5.1 km/h 10.3 km/h 61 % 0 mm
04:20 -10.7 °C -15 °C 34567.7 hPa NE 7.7 km/h 10.3 km/h 59 % 0 mm
04:30 -10.3 °C -14.6 °C 34567.7 hPa NE 5.1 km/h 10.3 km/h 60 % 0 mm
04:40 -10 °C -14.4 °C 34567.7 hPa NE 2.6 km/h 5.1 km/h 59 % 0 mm
04:50 -10 °C -14.4 °C 34567.7 hPa NE 2.6 km/h 10.3 km/h 59 % 0 mm
05:00 -9.6 °C -14.2 °C 34567.7 hPa SE 5.1 km/h 7.7 km/h 58 % 0 mm
05:10 -9.7 °C -14.2 °C 34567.7 hPa East 12.9 km/h 15.6 km/h 58 % 0 mm
05:20 -9.6 °C -14.1 °C 34567.7 hPa East 2.6 km/h 7.7 km/h 58 % 0 mm
05:30 -9.4 °C -14 °C 34567.7 hPa ENE 5.1 km/h 12.9 km/h 58 % 0 mm
05:50 -8.8 °C -13.6 °C 34567.7 hPa ESE 15.6 km/h 15.6 km/h 57 % 0 mm
06:00 -8.9 °C -13.8 °C 34567.7 hPa East 7.7 km/h 10.3 km/h 56 % 0 mm
06:05 -9 °C -14 °C 34567.7 hPa East 5.1 km/h 10.3 km/h 55 % 0 mm
12:05 -8.9 °C -13.9 °C 34567.7 hPa East 10.3 km/h 10.3 km/h 55 % 0 mm
12:10 -8.8 °C -14 °C 34533.8 hPa ESE 9 km/h 9 km/h 54 % 0 mm
12:15 -8.6 °C -13.6 °C 34533.8 hPa ENE 6 km/h 6 km/h 55 % 0 mm
12:20 -8.6 °C -13.8 °C 34533.8 hPa East 11.9 km/h 11.9 km/h 54 % 0 mm
12:25 -8.7 °C -13.8 °C 34533.8 hPa ESE 15.3 km/h 15.3 km/h 54 % 0 mm
12:30 -8.7 °C -14 °C 34533.8 hPa WSW 11.9 km/h 11.9 km/h 53 % 0 mm
12:35 -8.3 °C -13.8 °C 34533.8 hPa East 22 km/h 22 km/h 52 % 0 mm
12:40 -8.3 °C -13.8 °C 34496.6 hPa East 15 km/h 15 km/h 52 % 0 mm
12:45 -8.3 °C -14 °C 34496.6 hPa WSW 15 km/h 15 km/h 51 % 0 mm
12:50 -8.2 °C -13.8 °C 34496.6 hPa ENE 12.2 km/h 12.2 km/h 51 % 0 mm
12:55 -8.2 °C -13.9 °C 34533.8 hPa East 7.6 km/h 7.6 km/h 51 % 0 mm
13:00 -8.2 °C -13.8 °C 34533.8 hPa ESE 15.6 km/h 15.6 km/h 51 % 0 mm
13:10 -8.1 °C -13.9 °C 34533.8 hPa ENE 17.9 km/h 17.9 km/h 50 % 0 mm
13:15 -8.1 °C -13.9 °C 34533.8 hPa ENE 9 km/h 9 km/h 50 % 0 mm
13:20 -7.9 °C -13.8 °C 34533.8 hPa ENE 10.3 km/h 10.3 km/h 50 % 0 mm
13:25 -7.9 °C -13.9 °C 34533.8 hPa South 11.9 km/h 11.9 km/h 49 % 0 mm
13:30 -7.6 °C -13.7 °C 34533.8 hPa ENE 11.9 km/h 11.9 km/h 49 % 0 mm
13:35 -7.4 °C -13.4 °C 34533.8 hPa SW 9 km/h 9 km/h 50 % 0 mm
13:40 -7.2 °C -13.7 °C 34533.8 hPa SW 11.9 km/h 11.9 km/h 47 % 0 mm
13:45 -7.3 °C -13.9 °C 34533.8 hPa SSW 11.9 km/h 11.9 km/h 46 % 0 mm
13:50 -7.2 °C -13.8 °C 34533.8 hPa NW 11.9 km/h 11.9 km/h 46 % 0 mm
13:55 -7.2 °C -14 °C 34533.8 hPa South 8 km/h 8 km/h 45 % 0 mm
14:00 -7.2 °C -14 °C 34533.8 hPa ESE 9 km/h 9 km/h 45 % 0 mm
14:10 -7.4 °C -14 °C 34496.6 hPa East 20.9 km/h 20.9 km/h 46 % 0 mm
14:15 -7.7 °C -13.7 °C 34496.6 hPa ESE 32.8 km/h 32.8 km/h 49 % 0 mm
14:20 -8.2 °C -14 °C 34496.6 hPa ESE 35.7 km/h 35.7 km/h 50 % 0 mm
14:25 -8.3 °C -14.2 °C 34533.8 hPa ENE 29.8 km/h 29.8 km/h 50 % 0 mm
14:30 -8.4 °C -13.9 °C 34533.8 hPa ESE 38.8 km/h 38.8 km/h 52 % 0 mm
14:40 -8.3 °C -13.8 °C 34533.8 hPa East 20.9 km/h 20.9 km/h 52 % 0 mm
14:45 -8.4 °C -13.8 °C 34533.8 hPa East 23.8 km/h 23.8 km/h 53 % 0 mm
14:50 -8.5 °C -13.8 °C 34533.8 hPa ESE 17.9 km/h 17.9 km/h 53 % 0 mm
14:55 -8.4 °C -13.6 °C 34567.7 hPa East 15 km/h 15 km/h 54 % 0 mm
15:00 -8.2 °C -13.6 °C 34567.7 hPa ESE 20.9 km/h 20.9 km/h 53 % 0 mm
15:05 -8.2 °C -13.6 °C 34567.7 hPa East 25.4 km/h 25.4 km/h 53 % 0 mm
15:10 -8.6 °C -13.8 °C 34567.7 hPa ESE 35.7 km/h 35.7 km/h 54 % 0 mm
15:15 -8.6 °C -13.8 °C 34567.7 hPa East 20.9 km/h 20.9 km/h 54 % 0 mm
15:20 -8.8 °C -13.8 °C 34567.7 hPa ENE 17.9 km/h 17.9 km/h 55 % 0 mm
15:25 -8.9 °C -13.9 °C 34601.5 hPa ESE 11.9 km/h 14 km/h 55 % 0 mm
15:30 -8.9 °C -13.8 °C 34601.5 hPa SSE 6.3 km/h 9.8 km/h 56 % 0 mm
15:35 -9 °C -13.8 °C 34601.5 hPa SE 9 km/h 12.2 km/h 56 % 0 mm
15:40 -9.2 °C -14.1 °C 34601.5 hPa SE 9.3 km/h 12.2 km/h 56 % 0 mm
15:45 -9.2 °C -13.9 °C 34601.5 hPa SE 9.3 km/h 12.2 km/h 57 % 0 mm
15:50 -9.3 °C -13.8 °C 34601.5 hPa SE 9.3 km/h 12.2 km/h 58 % 0 mm
15:55 -9.3 °C -13.8 °C 34601.5 hPa SE 9.3 km/h 12.2 km/h 59 % 0 mm
16:00 -9.6 °C -13.8 °C 34601.5 hPa SE 9.3 km/h 12.2 km/h 60 % 0 mm
16:05 -9.6 °C -13.8 °C 34601.5 hPa SE 9.3 km/h 12.2 km/h 60 % 0 mm
16:10 -9.7 °C -13.9 °C 34601.5 hPa SE 9.3 km/h 12.2 km/h 60 % 0 mm
16:15 -9.7 °C -13.8 °C 34601.5 hPa East 16.1 km/h 16.1 km/h 61 % 0 mm
16:20 -9.8 °C -13.9 °C 34601.5 hPa East 16.1 km/h 16.1 km/h 61 % 0 mm
16:25 -9.8 °C -13.9 °C 34601.5 hPa East 16.1 km/h 16.1 km/h 61 % 0 mm
16:30 -9.8 °C -13.9 °C 34601.5 hPa East 16.1 km/h 16.1 km/h 61 % 0 mm
16:35 -9.9 °C -13.9 °C 34601.5 hPa East 16.1 km/h 16.1 km/h 62 % 0 mm
16:40 -9.9 °C -13.9 °C 34601.5 hPa East 16.1 km/h 16.1 km/h 62 % 0 mm
16:45 -9.9 °C -13.9 °C 34601.5 hPa East 16.1 km/h 16.1 km/h 62 % 0 mm
16:50 -9.9 °C -13.8 °C 34601.5 hPa East 16.1 km/h 16.1 km/h 63 % 0 mm
16:55 -10.1 °C -13.8 °C 34601.5 hPa East 16.1 km/h 16.1 km/h 64 % 0 mm
17:00 -10.2 °C -13.8 °C 34601.5 hPa East 16.1 km/h 16.1 km/h 65 % 0 mm
17:05 -10.2 °C -13.8 °C 34601.5 hPa NE 11.9 km/h 11.9 km/h 65 % 0 mm
17:10 -10.3 °C -13.8 °C 34601.5 hPa NE 11.9 km/h 11.9 km/h 66 % 0 mm
17:15 -10.4 °C -13.8 °C 34601.5 hPa NE 11.9 km/h 11.9 km/h 67 % 0 mm
17:20 -10.6 °C -13.8 °C 34601.5 hPa NE 11.9 km/h 11.9 km/h 68 % 0 mm
17:25 -10.6 °C -13.8 °C 34601.5 hPa NE 11.9 km/h 11.9 km/h 68 % 0 mm
17:30 -10.7 °C -13.8 °C 34601.5 hPa NE 11.9 km/h 11.9 km/h 69 % 0 mm
17:35 -10.7 °C -13.8 °C 34601.5 hPa NE 11.9 km/h 11.9 km/h 69 % 0 mm
17:45 -10.8 °C -13.8 °C 34601.5 hPa NE 11.9 km/h 11.9 km/h 70 % 0 mm
17:50 -10.8 °C -13.7 °C 34601.5 hPa ENE 11.9 km/h 11.9 km/h 71 % 0 mm
17:55 -10.8 °C -13.7 °C 34601.5 hPa ENE 9 km/h 9.3 km/h 71 % 0 mm
18:00 -10.9 °C -13.7 °C 34601.5 hPa ESE 9 km/h 9 km/h 71 % 0 mm
18:05 -10.9 °C -13.7 °C 34601.5 hPa East 11.9 km/h 11.9 km/h 72 % 0 mm
18:10 -10.9 °C -13.7 °C 34601.5 hPa ESE 9.3 km/h 9.3 km/h 72 % 0 mm
18:15 -10.9 °C -13.6 °C 34601.5 hPa ESE 9.3 km/h 9.3 km/h 73 % 0 mm
18:20 -10.9 °C -13.6 °C 34601.5 hPa ESE 9.3 km/h 9.3 km/h 73 % 0 mm
18:25 -10.9 °C -13.6 °C 34601.5 hPa NE 6.3 km/h 6.8 km/h 73 % 0 mm
18:30 -11 °C -13.6 °C 34601.5 hPa NE 8.5 km/h 8.5 km/h 73 % 0 mm
18:35 -11 °C -13.5 °C 34601.5 hPa NNE 6.8 km/h 9.8 km/h 74 % 0 mm
18:40 -11.1 °C -13.6 °C 34601.5 hPa NE 11.9 km/h 11.9 km/h 74 % 0 mm
18:45 -11.1 °C -13.4 °C 34601.5 hPa NNE 9.3 km/h 10.3 km/h 75 % 0 mm
18:50 -12 °C -13.6 °C 34601.5 hPa ENE 7.7 km/h 7.7 km/h 83 % 0 mm
18:55 -11.1 °C -13.5 °C 34601.5 hPa NNE 9.3 km/h 10.3 km/h 75 % 0 mm
19:00 -11.1 °C -13.5 °C 34601.5 hPa NNE 9.3 km/h 10.3 km/h 75 % 0 mm
19:05 -11.1 °C -13.5 °C 34601.5 hPa NNE 9.3 km/h 10.3 km/h 75 % 0 mm
19:10 -11.2 °C -13.6 °C 34567.7 hPa NNE 9.3 km/h 10.3 km/h 75 % 0 mm
19:15 -11.2 °C -13.4 °C 34567.7 hPa NNE 9.3 km/h 10.3 km/h 76 % 0 mm
19:20 -11.2 °C -13.4 °C 34567.7 hPa NNE 9.3 km/h 10.3 km/h 76 % 0 mm
19:25 -11.2 °C -13.5 °C 34601.5 hPa NNE 9.3 km/h 10.3 km/h 76 % 0 mm
19:30 -11.2 °C -13.4 °C 34601.5 hPa NNE 9 km/h 9 km/h 76 % 0 mm
19:35 -11.2 °C -13.5 °C 34601.5 hPa NNE 6.8 km/h 6.8 km/h 76 % 0 mm
19:40 -11.2 °C -13.4 °C 34601.5 hPa NNE 6.8 km/h 6.8 km/h 77 % 0 mm
19:45 -11.2 °C -13.4 °C 34601.5 hPa NNE 6.8 km/h 6.8 km/h 77 % 0 mm
19:50 -11.2 °C -13.5 °C 34601.5 hPa NNE 6.8 km/h 6.8 km/h 76 % 0 mm
19:55 -11.2 °C -13.5 °C 34601.5 hPa NNE 6.8 km/h 6.8 km/h 76 % 0 mm
20:00 -11.2 °C -13.4 °C 34601.5 hPa NNE 6.8 km/h 6.8 km/h 77 % 0 mm
20:05 -11.2 °C -13.4 °C 34601.5 hPa NNE 6.8 km/h 6.8 km/h 77 % 0 mm
20:10 -11.2 °C -13.4 °C 34601.5 hPa NNE 6.8 km/h 6.8 km/h 77 % 0 mm
20:15 -11.2 °C -13.4 °C 34601.5 hPa NNE 6.8 km/h 6.8 km/h 77 % 0 mm
20:20 -11.3 °C -13.6 °C 34601.5 hPa NNE 6.8 km/h 6.8 km/h 76 % 0 mm
20:30 -11.3 °C -13.4 °C 34635.4 hPa NNE 6.8 km/h 6.8 km/h 77 % 0 mm
20:35 -11.3 °C -13.4 °C 34635.4 hPa NNE 6.8 km/h 6.8 km/h 77 % 0 mm
20:40 -11.3 °C -13.5 °C 34635.4 hPa NNE 6.8 km/h 6.8 km/h 77 % 0 mm
20:45 -11.3 °C -13.5 °C 34635.4 hPa NNE 6.8 km/h 6.8 km/h 77 % 0 mm
20:50 -11.3 °C -13.4 °C 34635.4 hPa NNE 6.8 km/h 6.8 km/h 78 % 0 mm
20:55 -11.3 °C -13.4 °C 34635.4 hPa NNE 6.8 km/h 6.8 km/h 78 % 0 mm
21:00 -11.3 °C -13.4 °C 34635.4 hPa NNE 6.8 km/h 6.8 km/h 78 % 0 mm
21:05 -11.3 °C -13.4 °C 34635.4 hPa NNE 6.8 km/h 6.8 km/h 78 % 0 mm
21:10 -11.3 °C -13.4 °C 34635.4 hPa NNE 6.8 km/h 6.8 km/h 78 % 0 mm
21:15 -11.3 °C -13.4 °C 34635.4 hPa NNE 6.8 km/h 6.8 km/h 78 % 0 mm
21:20 -11.3 °C -13.4 °C 34635.4 hPa NNE 6.8 km/h 6.8 km/h 78 % 0 mm
21:25 -11.3 °C -13.4 °C 34635.4 hPa NNE 6.8 km/h 6.8 km/h 78 % 0 mm
21:30 -11.4 °C -13.4 °C 34635.4 hPa NNE 6.8 km/h 6.8 km/h 78 % 0 mm
21:35 -11.4 °C -13.6 °C 34635.4 hPa NNE 6.8 km/h 6.8 km/h 77 % 0 mm
21:40 -11.4 °C -13.4 °C 34635.4 hPa NNE 6.8 km/h 6.8 km/h 78 % 0 mm
21:45 -11.4 °C -13.4 °C 34635.4 hPa NNE 6.8 km/h 6.8 km/h 78 % 0 mm
21:50 -11.4 °C -13.4 °C 34635.4 hPa NNE 6.8 km/h 6.8 km/h 78 % 0 mm
21:55 -11.4 °C -13.4 °C 34635.4 hPa NNE 6.8 km/h 6.8 km/h 78 % 0 mm
22:00 -11.4 °C -13.4 °C 34635.4 hPa NNE 6.8 km/h 6.8 km/h 78 % 0 mm
22:05 -11.4 °C -13.5 °C 34635.4 hPa NNE 6.8 km/h 6.8 km/h 78 % 0 mm
22:10 -11.5 °C -13.6 °C 34635.4 hPa NNE 6.8 km/h 6.8 km/h 78 % 0 mm
22:15 -11.6 °C -13.5 °C 34635.4 hPa NNE 6.8 km/h 6.8 km/h 79 % 0 mm
22:20 -11.6 °C -13.6 °C 34635.4 hPa NNE 6.8 km/h 6.8 km/h 79 % 0 mm
22:30 -11.7 °C -13.6 °C 34601.5 hPa NNE 6.8 km/h 6.8 km/h 79 % 0 mm
22:35 -11.7 °C -13.7 °C 34601.5 hPa NNE 6.8 km/h 6.8 km/h 79 % 0 mm
22:40 -11.8 °C -13.7 °C 34567.7 hPa NNE 6.8 km/h 6.8 km/h 79 % 0 mm
22:45 -11.8 °C -13.7 °C 34567.7 hPa NNE 6.8 km/h 6.8 km/h 79 % 0 mm
22:50 -11.8 °C -13.8 °C 34567.7 hPa NNE 6.8 km/h 6.8 km/h 79 % 0 mm
22:55 -11.9 °C -13.7 °C 34601.5 hPa NNE 6.8 km/h 6.8 km/h 80 % 0 mm
23:00 -11.9 °C -13.7 °C 34601.5 hPa NNE 6.8 km/h 6.8 km/h 80 % 0 mm
23:05 -11.9 °C -13.9 °C 34601.5 hPa NNE 6.8 km/h 6.8 km/h 79 % 0 mm
23:10 -11.9 °C -13.8 °C 34601.5 hPa NNE 6.8 km/h 6.8 km/h 80 % 0 mm
23:20 -12 °C -13.8 °C 34601.5 hPa NNE 6.8 km/h 6.8 km/h 80 % 0 mm
23:25 -12 °C -13.8 °C 34601.5 hPa NNE 6.8 km/h 6.8 km/h 80 % 0 mm
23:30 -12 °C -13.8 °C 34601.5 hPa NNE 6.8 km/h 6.8 km/h 80 % 0 mm
23:35 -12 °C -13.7 °C 34601.5 hPa NNE 6.8 km/h 6.8 km/h 81 % 0 mm
23:40 -12.1 °C -13.8 °C 34601.5 hPa NNE 6.8 km/h 6.8 km/h 81 % 0 mm
23:45 -12.1 °C -13.8 °C 34601.5 hPa NNE 6.8 km/h 6.8 km/h 81 % 0 mm
23:50 -12.1 °C -13.8 °C 34601.5 hPa NNE 6.8 km/h 6.8 km/h 81 % 0 mm
23:55 -12.1 °C -13.7 °C 34601.5 hPa NNE 6.8 km/h 6.8 km/h 82 % 0 mm
Meteo Sesrovires
Elogis d' Weather Underground - 2 mb

Guio original per  Jim McMurry - jmcmurry@mwt.net Adaptat per a la plantilla per  Wim van der Kuil - Leuven-Template.eu

Trobareu la nostra informacio del temps tambe a:

Weather Underground

AWEKAS